createdAt,value
2023-05-10T00:00:58.575Z,10.53
2023-05-10T00:03:06.315Z,10.53
2023-05-10T00:05:12.191Z,10.48
2023-05-10T00:07:18.792Z,10.51
2023-05-10T00:09:23.887Z,10.60
2023-05-10T00:11:31.371Z,10.57
2023-05-10T00:13:36.287Z,10.54
2023-05-10T00:15:41.208Z,10.54
2023-05-10T00:17:46.109Z,10.55
2023-05-10T00:19:53.750Z,10.53
2023-05-10T00:21:58.677Z,10.52
2023-05-10T00:24:03.719Z,10.51
2023-05-10T00:26:08.572Z,10.54
2023-05-10T00:28:13.483Z,10.56
2023-05-10T00:30:18.579Z,10.60
2023-05-10T00:32:24.034Z,10.59
2023-05-10T00:34:29.560Z,10.67
2023-05-10T00:36:37.069Z,10.74
2023-05-10T00:38:41.915Z,10.76
2023-05-10T00:40:46.846Z,10.81
2023-05-10T00:42:52.299Z,10.80
2023-05-10T00:44:57.601Z,10.82
2023-05-10T00:47:03.416Z,10.84
2023-05-10T00:49:08.331Z,10.85
2023-05-10T00:51:13.229Z,10.86
2023-05-10T00:53:21.132Z,10.86
2023-05-10T00:55:27.059Z,10.89
2023-05-10T00:57:32.429Z,10.89
2023-05-10T00:59:37.588Z,10.90
2023-05-10T01:01:42.544Z,10.94
2023-05-10T01:03:48.082Z,10.96
2023-05-10T01:05:53.814Z,11.01
2023-05-10T01:07:59.090Z,11.01
2023-05-10T01:10:06.971Z,11.03
2023-05-10T01:12:11.897Z,11.03
2023-05-10T01:14:17.141Z,11.05
2023-05-10T01:16:22.549Z,11.08
2023-05-10T01:18:29.270Z,11.19
2023-05-10T01:20:44.640Z,11.15
2023-05-10T01:23:25.237Z,11.17
2023-05-10T01:26:02.452Z,11.20
2023-05-10T01:28:43.183Z,11.19
2023-05-10T01:31:22.348Z,11.20
2023-05-10T01:33:34.329Z,11.25
2023-05-10T01:35:44.173Z,11.25
2023-05-10T01:37:54.004Z,11.25
2023-05-10T01:40:04.386Z,11.29
2023-05-10T01:42:14.507Z,11.29
2023-05-10T01:44:36.747Z,11.30
2023-05-10T01:46:43.680Z,11.30
2023-05-10T01:48:54.708Z,11.31
2023-05-10T01:51:01.348Z,11.32
2023-05-10T01:53:09.640Z,11.35
2023-05-10T01:55:18.809Z,11.35
2023-05-10T01:57:26.500Z,11.41
2023-05-10T01:59:37.798Z,11.42
2023-05-10T02:01:44.049Z,11.41
2023-05-10T02:03:53.823Z,11.42
2023-05-10T02:06:00.446Z,11.48
2023-05-10T02:08:07.331Z,11.45
2023-05-10T02:10:15.727Z,11.51
2023-05-10T02:12:22.500Z,11.50
2023-05-10T02:14:30.613Z,11.51
2023-05-10T02:16:36.701Z,11.51
2023-05-10T02:18:44.670Z,11.57
2023-05-10T02:20:53.614Z,11.61
2023-05-10T02:23:02.005Z,11.58
2023-05-10T02:25:07.880Z,11.59
2023-05-10T02:27:14.214Z,11.58
2023-05-10T02:29:21.273Z,11.57
2023-05-10T02:31:30.894Z,11.54
2023-05-10T02:33:36.596Z,11.57
2023-05-10T02:35:42.560Z,11.63
2023-05-10T02:37:52.280Z,11.64
2023-05-10T02:40:00.702Z,11.60
2023-05-10T02:42:06.358Z,11.58
2023-05-10T02:44:13.128Z,11.60
2023-05-10T02:46:18.011Z,11.69
2023-05-10T02:48:26.217Z,11.69
2023-05-10T02:50:33.832Z,11.67
2023-05-10T02:52:44.715Z,11.63
2023-05-10T02:54:56.472Z,11.63
2023-05-10T02:57:04.196Z,11.63
2023-05-10T02:59:09.647Z,11.63
2023-05-10T03:01:14.576Z,11.66
2023-05-10T03:03:19.452Z,11.66
2023-05-10T03:05:24.643Z,11.67
2023-05-10T03:07:29.560Z,11.61
2023-05-10T03:09:34.932Z,11.60
2023-05-10T03:11:54.228Z,11.60
2023-05-10T03:14:12.578Z,11.58
2023-05-10T03:16:20.768Z,11.54
2023-05-10T03:18:27.510Z,11.62
2023-05-10T03:20:38.003Z,11.62
2023-05-10T03:22:48.377Z,11.64
2023-05-10T03:24:53.858Z,11.65
2023-05-10T03:27:05.436Z,11.59
2023-05-10T03:29:11.207Z,11.63
2023-05-10T03:31:17.001Z,11.56
2023-05-10T03:33:22.465Z,11.62
2023-05-10T03:35:28.558Z,11.58
2023-05-10T03:37:33.618Z,11.52
2023-05-10T03:39:38.381Z,11.67
2023-05-10T03:41:43.224Z,11.62
2023-05-10T03:43:50.831Z,11.69
2023-05-10T03:45:58.622Z,11.62
2023-05-10T03:48:03.981Z,11.60
2023-05-10T03:50:12.564Z,11.58
2023-05-10T03:52:17.695Z,11.52
2023-05-10T03:54:23.704Z,11.53
2023-05-10T03:56:29.209Z,11.51
2023-05-10T03:58:34.151Z,11.54
2023-05-10T04:00:44.845Z,11.50
2023-05-10T04:02:49.903Z,11.50
2023-05-10T04:04:55.341Z,11.46
2023-05-10T04:07:00.409Z,11.53
2023-05-10T04:09:05.468Z,11.47
2023-05-10T04:11:11.430Z,11.46
2023-05-10T04:13:16.219Z,11.45
2023-05-10T04:15:22.602Z,11.39
2023-05-10T04:17:30.447Z,11.38
2023-05-10T04:19:35.935Z,11.44
2023-05-10T04:21:40.961Z,11.43
2023-05-10T04:23:45.932Z,11.45
2023-05-10T04:25:50.892Z,11.42
2023-05-10T04:27:57.187Z,11.37
2023-05-10T04:30:02.400Z,11.42
2023-05-10T04:32:07.915Z,11.37
2023-05-10T04:34:15.376Z,11.39
2023-05-10T04:36:20.371Z,11.21
2023-05-10T04:38:25.746Z,11.24
2023-05-10T04:40:30.793Z,11.16
2023-05-10T04:42:35.669Z,11.19
2023-05-10T04:44:40.836Z,11.21
2023-05-10T04:46:45.935Z,11.10
2023-05-10T04:48:51.023Z,11.10
2023-05-10T04:50:58.686Z,10.95
2023-05-10T04:53:06.107Z,10.96
2023-05-10T04:55:11.848Z,10.98
2023-05-10T04:57:16.750Z,11.01
2023-05-10T04:59:22.403Z,11.01
2023-05-10T05:01:27.500Z,10.98
2023-05-10T05:03:32.465Z,11.00
2023-05-10T05:05:37.657Z,10.99
2023-05-10T05:07:45.098Z,11.03
2023-05-10T05:09:49.943Z,11.07
2023-05-10T05:11:54.973Z,11.05
2023-05-10T05:14:02.975Z,11.05
2023-05-10T05:16:09.314Z,11.08
2023-05-10T05:18:14.344Z,11.04
2023-05-10T05:20:20.204Z,11.04
2023-05-10T05:22:29.024Z,11.04
2023-05-10T05:24:39.794Z,11.06
2023-05-10T05:26:44.714Z,11.12
2023-05-10T05:28:50.006Z,11.17
2023-05-10T05:30:55.330Z,11.17
2023-05-10T05:33:00.735Z,11.20
2023-05-10T05:35:05.676Z,11.21
2023-05-10T05:37:10.581Z,11.14
2023-05-10T05:39:15.574Z,11.11
2023-05-10T05:41:23.934Z,11.18
2023-05-10T05:43:29.161Z,11.24
2023-05-10T05:45:33.918Z,11.23
2023-05-10T05:47:38.729Z,11.26
2023-05-10T05:49:43.617Z,11.34
2023-05-10T05:51:50.216Z,11.42
2023-05-10T05:53:55.351Z,11.55
2023-05-10T05:56:01.264Z,11.38
2023-05-10T05:58:08.581Z,11.34
2023-05-10T06:00:14.230Z,11.35
2023-05-10T06:02:19.074Z,11.48
2023-05-10T06:04:24.142Z,11.39
2023-05-10T06:06:29.450Z,11.42
2023-05-10T06:08:35.250Z,11.41
2023-05-10T06:10:40.272Z,11.50
2023-05-10T06:12:45.204Z,11.54
2023-05-10T06:14:53.906Z,11.65
2023-05-10T06:17:00.878Z,11.89
2023-05-10T06:19:06.195Z,12.25
2023-05-10T06:21:11.152Z,12.54
2023-05-10T06:23:16.060Z,12.95
2023-05-10T06:25:21.297Z,13.20
2023-05-10T06:27:27.179Z,13.18
2023-05-10T06:29:32.117Z,13.03
2023-05-10T06:31:39.534Z,12.93
2023-05-10T06:33:44.530Z,13.47
2023-05-10T06:35:49.555Z,13.48
2023-05-10T06:37:56.087Z,13.32
2023-05-10T06:40:01.023Z,13.20
2023-05-10T06:42:05.925Z,13.25
2023-05-10T06:44:10.776Z,13.14
2023-05-10T06:46:15.750Z,13.20
2023-05-10T06:48:23.969Z,13.42
2023-05-10T06:50:31.428Z,13.39
2023-05-10T06:52:36.239Z,13.59
2023-05-10T06:54:41.180Z,13.62
2023-05-10T06:56:46.014Z,13.76
2023-05-10T06:58:50.997Z,13.82
2023-05-10T07:00:56.733Z,13.73
2023-05-10T07:03:01.708Z,13.78
2023-05-10T07:05:10.107Z,13.40
2023-05-10T07:07:14.923Z,13.27
2023-05-10T07:09:19.840Z,13.14
2023-05-10T07:11:25.174Z,13.15
2023-05-10T07:13:29.884Z,13.32
2023-05-10T07:15:34.743Z,13.24
2023-05-10T07:17:40.193Z,13.41
2023-05-10T07:19:45.634Z,13.58
2023-05-10T07:21:53.649Z,13.65
2023-05-10T07:24:01.541Z,13.60
2023-05-10T07:26:06.336Z,13.64
2023-05-10T07:28:11.154Z,13.58
2023-05-10T07:30:17.402Z,13.65
2023-05-10T07:32:22.799Z,13.72
2023-05-10T07:34:28.058Z,13.75
2023-05-10T07:36:35.739Z,13.80
2023-05-10T07:38:43.325Z,13.62
2023-05-10T07:40:48.015Z,13.66
2023-05-10T07:42:53.646Z,13.61
2023-05-10T07:44:59.251Z,13.56
2023-05-10T07:47:04.073Z,13.51
2023-05-10T07:49:08.900Z,13.49
2023-05-10T07:51:13.741Z,13.44
2023-05-10T07:53:19.879Z,13.40
2023-05-10T07:55:27.600Z,13.46
2023-05-10T07:57:32.624Z,13.42
2023-05-10T07:59:37.912Z,13.36
2023-05-10T08:01:42.887Z,13.41
2023-05-10T08:03:48.002Z,13.49
2023-05-10T08:05:53.620Z,13.53
2023-05-10T08:08:01.446Z,13.46
2023-05-10T08:10:07.031Z,13.29
2023-05-10T08:12:14.752Z,13.47
2023-05-10T08:14:19.701Z,13.43
2023-05-10T08:16:32.996Z,13.52
2023-05-10T08:18:38.150Z,13.50
2023-05-10T08:20:43.073Z,13.60
2023-05-10T08:22:49.914Z,13.70
2023-05-10T08:24:56.761Z,13.62
2023-05-10T08:27:01.996Z,13.74
2023-05-10T08:29:09.957Z,13.81
2023-05-10T08:31:14.784Z,13.77
2023-05-10T08:33:19.727Z,13.83
2023-05-10T08:35:28.696Z,13.96
2023-05-10T08:37:34.336Z,14.12
2023-05-10T08:39:39.219Z,13.98
2023-05-10T08:41:47.840Z,14.10
2023-05-10T08:43:54.142Z,14.12
2023-05-10T08:46:05.206Z,14.19
2023-05-10T08:48:11.354Z,14.21
2023-05-10T08:50:17.525Z,14.25
2023-05-10T08:52:22.866Z,14.37
2023-05-10T08:54:31.613Z,14.46
2023-05-10T08:56:37.737Z,14.54
2023-05-10T08:58:42.980Z,14.46
2023-05-10T09:00:48.198Z,14.33
2023-05-10T09:03:00.457Z,14.22
2023-05-10T09:05:05.996Z,14.30
2023-05-10T09:07:11.160Z,14.41
2023-05-10T09:09:16.534Z,14.37
2023-05-10T09:11:26.540Z,14.38
2023-05-10T09:13:32.571Z,14.41
2023-05-10T09:15:37.684Z,14.51
2023-05-10T09:17:44.492Z,14.36
2023-05-10T09:19:52.384Z,14.44
2023-05-10T09:21:57.401Z,14.26
2023-05-10T09:24:07.354Z,14.22
2023-05-10T09:26:12.167Z,14.34
2023-05-10T09:28:17.200Z,14.45
2023-05-10T09:30:28.643Z,14.21
2023-05-10T09:32:43.768Z,13.79
2023-05-10T09:34:54.014Z,13.97
2023-05-10T09:37:02.163Z,14.03
2023-05-10T09:39:07.283Z,13.99
2023-05-10T09:41:20.246Z,14.03
2023-05-10T09:43:31.619Z,14.22
2023-05-10T09:45:38.950Z,14.50
2023-05-10T09:47:44.301Z,14.83
2023-05-10T09:49:54.376Z,14.50
2023-05-10T09:52:05.477Z,14.71
2023-05-10T09:54:14.851Z,14.72
2023-05-10T09:56:41.503Z,14.96
2023-05-10T09:58:46.615Z,14.96
2023-05-10T10:00:55.370Z,15.26
2023-05-10T10:03:01.373Z,15.31
2023-05-10T10:05:11.112Z,15.45
2023-05-10T10:07:16.194Z,15.22
2023-05-10T10:09:21.077Z,15.68
2023-05-10T10:11:30.545Z,16.26
2023-05-10T10:13:36.423Z,16.28
2023-05-10T10:15:41.756Z,16.61
2023-05-10T10:17:47.955Z,16.86
2023-05-10T10:19:53.410Z,16.84
2023-05-10T10:22:01.446Z,17.07
2023-05-10T10:24:06.962Z,16.86
2023-05-10T10:26:12.317Z,17.23
2023-05-10T10:28:30.870Z,17.37
2023-05-10T10:30:40.931Z,17.60
2023-05-10T10:33:16.479Z,17.05
2023-05-10T10:35:25.999Z,16.23
2023-05-10T10:37:51.413Z,16.21
2023-05-10T10:39:59.329Z,16.23
2023-05-10T10:42:04.664Z,16.55
2023-05-10T10:44:33.165Z,16.60
2023-05-10T10:46:38.792Z,15.78
2023-05-10T10:48:43.663Z,15.82
2023-05-10T10:50:49.554Z,15.77
2023-05-10T10:52:57.694Z,16.16
2023-05-10T10:55:05.154Z,16.57
2023-05-10T10:57:16.930Z,15.96
2023-05-10T10:59:30.966Z,16.11
2023-05-10T11:01:38.125Z,15.66
2023-05-10T11:03:43.196Z,15.83
2023-05-10T11:05:48.684Z,15.63
2023-05-10T11:08:00.573Z,15.93
2023-05-10T11:10:08.635Z,16.60
2023-05-10T11:12:13.566Z,16.17
2023-05-10T11:14:18.508Z,15.95
2023-05-10T11:16:24.967Z,16.01
2023-05-10T11:18:31.968Z,15.89
2023-05-10T11:20:43.094Z,15.77
2023-05-10T11:22:54.766Z,16.19
2023-05-10T11:25:05.154Z,16.24
2023-05-10T11:27:10.227Z,16.73
2023-05-10T11:29:17.008Z,16.43
2023-05-10T11:31:23.339Z,16.13
2023-05-10T11:33:31.325Z,16.29
2023-05-10T11:35:43.405Z,16.35
2023-05-10T11:37:52.240Z,16.20
2023-05-10T11:39:59.149Z,16.30
2023-05-10T11:42:06.732Z,16.33
2023-05-10T11:44:13.309Z,16.11
2023-05-10T11:46:21.466Z,16.12
2023-05-10T11:48:27.394Z,16.88
2023-05-10T11:50:32.986Z,16.13
2023-05-10T11:52:40.643Z,16.27
2023-05-10T11:54:50.032Z,16.48
2023-05-10T11:56:54.952Z,16.50
2023-05-10T11:59:05.628Z,16.89
2023-05-10T12:01:11.961Z,17.32
2023-05-10T12:03:17.364Z,16.85
2023-05-10T12:05:22.931Z,16.37
2023-05-10T12:07:27.850Z,16.29
2023-05-10T12:09:43.100Z,15.98
2023-05-10T12:11:48.736Z,16.17
2023-05-10T12:13:54.635Z,15.93
2023-05-10T12:16:04.020Z,15.82
2023-05-10T12:18:09.494Z,16.04
2023-05-10T12:20:19.068Z,15.69
2023-05-10T12:22:25.169Z,15.54
2023-05-10T12:24:30.144Z,15.91
2023-05-10T12:26:35.605Z,15.58
2023-05-10T12:28:41.853Z,15.49
2023-05-10T12:30:47.854Z,15.71
2023-05-10T12:32:55.975Z,15.56
2023-05-10T12:35:01.887Z,15.29
2023-05-10T12:37:07.644Z,15.44
2023-05-10T12:39:12.889Z,15.68
2023-05-10T12:41:19.910Z,15.44
2023-05-10T12:43:24.763Z,15.73
2023-05-10T12:45:30.029Z,16.09
2023-05-10T12:47:35.370Z,16.08
2023-05-10T12:49:42.775Z,15.78
2023-05-10T12:51:47.561Z,15.74
2023-05-10T12:53:53.252Z,16.03
2023-05-10T12:55:58.783Z,15.47
2023-05-10T12:58:03.831Z,15.44
2023-05-10T13:00:10.583Z,15.69
2023-05-10T13:02:15.877Z,15.63
2023-05-10T13:04:20.724Z,15.55
2023-05-10T13:06:29.588Z,15.36
2023-05-10T13:08:35.047Z,15.40
2023-05-10T13:10:40.050Z,15.41
2023-05-10T13:12:44.894Z,15.62
2023-05-10T13:14:49.953Z,15.97
2023-05-10T13:16:55.077Z,15.62
2023-05-10T13:19:00.362Z,15.47
2023-05-10T13:21:06.754Z,15.62
2023-05-10T13:23:14.231Z,15.79
2023-05-10T13:25:19.040Z,15.65
2023-05-10T13:27:24.294Z,15.61
2023-05-10T13:29:29.157Z,15.56
2023-05-10T13:31:34.139Z,15.78
2023-05-10T13:33:38.990Z,16.13
2023-05-10T13:35:43.755Z,16.18
2023-05-10T13:37:48.558Z,15.77
2023-05-10T13:39:56.322Z,15.53
2023-05-10T13:42:01.072Z,15.36
2023-05-10T13:44:05.873Z,15.09
2023-05-10T13:46:10.709Z,15.46
2023-05-10T13:48:51.884Z,15.11
2023-05-10T13:50:56.738Z,15.28
2023-05-10T13:53:01.625Z,15.49
2023-05-10T13:55:09.878Z,15.40
2023-05-10T13:57:15.202Z,15.45
2023-05-10T13:59:20.138Z,15.47
2023-05-10T14:01:25.102Z,15.92
2023-05-10T14:03:30.429Z,15.61
2023-05-10T14:05:35.662Z,15.54
2023-05-10T14:07:42.421Z,15.65
2023-05-10T14:09:47.234Z,15.56
2023-05-10T14:11:54.664Z,15.48
2023-05-10T14:13:59.554Z,15.16
2023-05-10T14:16:04.444Z,15.13
2023-05-10T14:18:10.067Z,15.30
2023-05-10T14:20:15.604Z,15.42
2023-05-10T14:22:20.814Z,15.50
2023-05-10T14:24:25.685Z,15.73
2023-05-10T14:26:30.807Z,15.70
2023-05-10T14:28:38.360Z,15.66
2023-05-10T14:30:44.087Z,15.58
2023-05-10T14:32:48.924Z,15.84
2023-05-10T14:34:54.006Z,15.55
2023-05-10T14:36:59.633Z,15.80
2023-05-10T14:39:04.747Z,15.70
2023-05-10T14:41:11.806Z,15.76
2023-05-10T14:43:16.813Z,15.77
2023-05-10T14:45:25.053Z,15.98
2023-05-10T14:47:30.306Z,16.14
2023-05-10T14:49:35.323Z,16.00
2023-05-10T14:51:41.126Z,15.84
2023-05-10T14:53:46.416Z,15.94
2023-05-10T14:55:51.454Z,15.83
2023-05-10T14:57:56.286Z,15.65
2023-05-10T15:00:01.316Z,15.80
2023-05-10T15:02:10.660Z,15.91
2023-05-10T15:04:17.667Z,16.04
2023-05-10T15:06:27.580Z,15.66
2023-05-10T15:08:33.756Z,15.82
2023-05-10T15:10:38.891Z,16.09
2023-05-10T15:12:44.610Z,15.61
2023-05-10T15:14:49.482Z,15.98
2023-05-10T15:16:55.282Z,15.64
2023-05-10T15:19:03.021Z,15.48
2023-05-10T15:21:07.921Z,15.82
2023-05-10T15:23:12.847Z,15.41
2023-05-10T15:25:18.453Z,15.31
2023-05-10T15:27:23.481Z,15.05
2023-05-10T15:29:28.914Z,15.14
2023-05-10T15:31:36.232Z,15.25
2023-05-10T15:33:42.517Z,15.24
2023-05-10T15:35:49.999Z,15.35
2023-05-10T15:37:54.923Z,15.55
2023-05-10T15:40:04.977Z,15.41
2023-05-10T15:42:10.126Z,15.52
2023-05-10T15:44:14.984Z,15.32
2023-05-10T15:46:19.831Z,15.63
2023-05-10T15:48:24.728Z,15.53
2023-05-10T15:50:29.930Z,15.86
2023-05-10T15:52:37.872Z,15.91
2023-05-10T15:54:42.980Z,16.20
2023-05-10T15:56:48.220Z,16.12
2023-05-10T15:58:53.453Z,16.17
2023-05-10T16:01:01.889Z,15.99
2023-05-10T16:03:07.142Z,16.14
2023-05-10T16:05:14.284Z,16.42
2023-05-10T16:07:19.262Z,16.41
2023-05-10T16:09:26.711Z,16.15
2023-05-10T16:11:31.668Z,15.86
2023-05-10T16:13:37.676Z,15.75
2023-05-10T16:15:43.296Z,15.70
2023-05-10T16:17:48.437Z,15.81
2023-05-10T16:19:53.495Z,15.63
2023-05-10T16:22:01.232Z,15.87
2023-05-10T16:24:06.644Z,15.68
2023-05-10T16:26:14.462Z,15.62
2023-05-10T16:28:21.158Z,15.58
2023-05-10T16:30:27.693Z,15.31
2023-05-10T16:32:35.582Z,15.53
2023-05-10T16:34:40.801Z,15.39
2023-05-10T16:36:46.068Z,15.74
2023-05-10T16:38:51.721Z,15.45
2023-05-10T16:40:57.595Z,15.15
2023-05-10T16:43:04.964Z,15.34
2023-05-10T16:45:11.481Z,15.14
2023-05-10T16:47:16.853Z,15.04
2023-05-10T16:49:23.669Z,14.80
2023-05-10T16:51:30.569Z,14.82
2023-05-10T16:53:35.486Z,14.81
2023-05-10T16:55:40.491Z,14.96
2023-05-10T16:57:46.116Z,14.72
2023-05-10T16:59:55.937Z,14.61
2023-05-10T17:02:01.084Z,14.73
2023-05-10T17:04:06.685Z,14.64
2023-05-10T17:06:11.947Z,14.47
2023-05-10T17:08:16.824Z,14.53
2023-05-10T17:10:22.650Z,14.54
2023-05-10T17:12:28.039Z,14.45
2023-05-10T17:14:33.040Z,14.29
2023-05-10T17:16:40.847Z,14.27
2023-05-10T17:18:46.490Z,14.13
2023-05-10T17:20:51.575Z,14.20
2023-05-10T17:22:56.483Z,14.15
2023-05-10T17:25:01.446Z,14.10
2023-05-10T17:27:07.205Z,14.12
2023-05-10T17:29:14.591Z,14.11
2023-05-10T17:31:19.492Z,14.24
2023-05-10T17:33:27.115Z,14.20
2023-05-10T17:35:32.753Z,14.25
2023-05-10T17:37:37.898Z,14.11
2023-05-10T17:39:42.791Z,13.98
2023-05-10T17:41:47.968Z,13.93
2023-05-10T17:43:53.361Z,13.89
2023-05-10T17:45:58.508Z,13.93
2023-05-10T17:48:03.626Z,13.88
2023-05-10T17:50:15.550Z,13.77
2023-05-10T17:52:20.547Z,13.99
2023-05-10T17:54:25.512Z,14.01
2023-05-10T17:56:30.540Z,14.16
2023-05-10T17:58:38.494Z,14.27
2023-05-10T18:00:43.597Z,14.20
2023-05-10T18:02:48.737Z,14.03
2023-05-10T18:04:53.753Z,14.23
2023-05-10T18:07:01.912Z,13.89
2023-05-10T18:09:07.720Z,13.83
2023-05-10T18:11:14.072Z,13.79
2023-05-10T18:13:20.095Z,13.71
2023-05-10T18:15:25.077Z,13.76
2023-05-10T18:17:30.278Z,13.66
2023-05-10T18:19:35.319Z,13.72
2023-05-10T18:21:40.746Z,13.61
2023-05-10T18:23:48.255Z,13.48
2023-05-10T18:25:53.888Z,13.54
2023-05-10T18:27:59.073Z,13.46
2023-05-10T18:30:05.132Z,13.36
2023-05-10T18:32:10.093Z,13.43
2023-05-10T18:34:15.306Z,13.53
2023-05-10T18:36:20.217Z,13.56
2023-05-10T18:38:25.165Z,13.63
2023-05-10T18:40:32.956Z,13.66
2023-05-10T18:42:38.394Z,13.65
2023-05-10T18:44:43.389Z,13.69
2023-05-10T18:46:49.250Z,13.64
2023-05-10T18:48:54.380Z,13.60
2023-05-10T18:50:59.451Z,13.41
2023-05-10T18:53:04.490Z,13.48
2023-05-10T18:55:11.547Z,13.57
2023-05-10T18:57:21.529Z,13.47
2023-05-10T18:59:28.009Z,13.57
2023-05-10T19:01:32.970Z,13.47
2023-05-10T19:03:38.844Z,13.57
2023-05-10T19:05:43.692Z,13.63
2023-05-10T19:07:49.099Z,13.56
2023-05-10T19:09:54.716Z,13.54
2023-05-10T19:11:59.930Z,13.57
2023-05-10T19:14:08.212Z,13.55
2023-05-10T19:16:16.229Z,13.35
2023-05-10T19:18:21.685Z,13.44
2023-05-10T19:20:28.248Z,13.49
2023-05-10T19:22:47.134Z,13.42
2023-05-10T19:25:01.586Z,13.31
2023-05-10T19:27:06.950Z,13.27
2023-05-10T19:29:17.741Z,13.38
2023-05-10T19:31:25.592Z,13.31
2023-05-10T19:33:30.907Z,13.30
2023-05-10T19:35:35.981Z,13.23
2023-05-10T19:37:46.149Z,13.20
2023-05-10T19:39:51.935Z,13.23
2023-05-10T19:41:57.114Z,13.17
2023-05-10T19:44:02.149Z,13.15
2023-05-10T19:46:10.163Z,13.09
2023-05-10T19:48:15.499Z,13.05
2023-05-10T19:50:21.283Z,13.04
2023-05-10T19:52:26.898Z,12.99
2023-05-10T19:54:32.134Z,13.03
2023-05-10T19:56:38.350Z,13.01
2023-05-10T19:58:44.374Z,12.98
2023-05-10T20:00:49.563Z,13.00
2023-05-10T20:02:58.259Z,12.93
2023-05-10T20:05:03.281Z,12.93
2023-05-10T20:07:08.414Z,12.93
2023-05-10T20:09:13.573Z,13.03
2023-05-10T20:11:20.091Z,13.07
2023-05-10T20:13:27.380Z,13.09
2023-05-10T20:15:33.102Z,13.00
2023-05-10T20:17:39.812Z,12.99
2023-05-10T20:19:50.347Z,12.92
2023-05-10T20:21:59.017Z,12.74
2023-05-10T20:24:06.851Z,12.61
2023-05-10T20:26:12.926Z,12.62
2023-05-10T20:28:18.199Z,12.61
2023-05-10T20:30:23.295Z,12.62
2023-05-10T20:32:30.937Z,12.63
2023-05-10T20:34:38.051Z,12.68
2023-05-10T20:36:45.973Z,12.65
2023-05-10T20:38:52.279Z,12.65
2023-05-10T20:40:57.666Z,12.63
2023-05-10T20:43:02.644Z,12.63
2023-05-10T20:45:08.675Z,12.56
2023-05-10T20:47:14.047Z,12.62
2023-05-10T20:49:19.988Z,12.58
2023-05-10T20:51:30.307Z,12.55
2023-05-10T20:53:38.049Z,12.53
2023-05-10T20:55:43.145Z,12.38
2023-05-10T20:57:48.642Z,12.39
2023-05-10T20:59:53.652Z,12.38
2023-05-10T21:01:59.839Z,12.45
2023-05-10T21:04:05.137Z,12.49
2023-05-10T21:06:10.487Z,12.41
2023-05-10T21:08:15.526Z,12.36
2023-05-10T21:10:25.728Z,12.35
2023-05-10T21:12:31.059Z,12.32
2023-05-10T21:14:36.552Z,12.29
2023-05-10T21:16:42.070Z,12.28
2023-05-10T21:18:47.173Z,12.23
2023-05-10T21:20:53.064Z,12.21
2023-05-10T21:22:58.731Z,12.16
2023-05-10T21:25:04.018Z,12.18
2023-05-10T21:27:11.553Z,12.15
2023-05-10T21:29:16.580Z,12.12
2023-05-10T21:31:22.391Z,12.19
2023-05-10T21:33:27.506Z,12.14
2023-05-10T21:35:33.436Z,12.10
2023-05-10T21:37:38.330Z,12.07
2023-05-10T21:39:43.097Z,12.07
2023-05-10T21:41:47.978Z,12.12
2023-05-10T21:43:56.591Z,12.05
2023-05-10T21:46:01.628Z,11.98
2023-05-10T21:48:06.985Z,11.94
2023-05-10T21:50:13.138Z,11.98
2023-05-10T21:52:18.106Z,11.95
2023-05-10T21:54:23.079Z,11.97
2023-05-10T21:56:32.166Z,12.00
2023-05-10T21:58:37.204Z,11.97
2023-05-10T22:00:47.302Z,11.96
2023-05-10T22:02:52.537Z,12.02
2023-05-10T22:04:57.456Z,11.99
2023-05-10T22:07:02.486Z,11.98
2023-05-10T22:09:08.021Z,11.98
2023-05-10T22:11:13.068Z,11.97
2023-05-10T22:13:18.057Z,11.95
2023-05-10T22:15:23.036Z,11.99
2023-05-10T22:17:31.581Z,11.97
2023-05-10T22:19:36.529Z,11.95
2023-05-10T22:21:41.512Z,11.93
2023-05-10T22:23:46.470Z,11.92
2023-05-10T22:25:51.309Z,11.94
2023-05-10T22:27:56.733Z,11.91
2023-05-10T22:30:01.695Z,11.83
2023-05-10T22:32:07.015Z,11.80
2023-05-10T22:34:14.638Z,11.84
2023-05-10T22:36:19.540Z,11.86
2023-05-10T22:38:25.699Z,11.88
2023-05-10T22:40:30.787Z,11.92
2023-05-10T22:42:36.541Z,11.95
2023-05-10T22:44:41.360Z,11.95
2023-05-10T22:46:46.415Z,11.94
2023-05-10T22:48:51.833Z,11.98
2023-05-10T22:51:00.248Z,11.99
2023-05-10T22:53:08.061Z,11.98
2023-05-10T22:55:13.231Z,12.01
2023-05-10T22:57:18.434Z,12.00
2023-05-10T22:59:23.874Z,11.98
2023-05-10T23:01:32.622Z,11.92
2023-05-10T23:03:37.765Z,11.94
2023-05-10T23:05:42.606Z,11.92
2023-05-10T23:07:53.443Z,11.88
2023-05-10T23:09:58.301Z,11.89
2023-05-10T23:12:03.232Z,11.86
2023-05-10T23:14:08.346Z,11.88
2023-05-10T23:16:13.535Z,11.92
2023-05-10T23:18:19.077Z,11.91
2023-05-10T23:20:27.205Z,11.89
2023-05-10T23:22:32.307Z,11.87
2023-05-10T23:24:39.842Z,11.90
2023-05-10T23:26:46.712Z,11.90
2023-05-10T23:28:51.535Z,11.89
2023-05-10T23:30:58.547Z,11.85
2023-05-10T23:33:03.722Z,11.86
2023-05-10T23:35:09.813Z,11.90
2023-05-10T23:37:15.086Z,11.92
2023-05-10T23:39:20.061Z,11.93
2023-05-10T23:41:27.727Z,11.94
2023-05-10T23:43:32.634Z,11.95
2023-05-10T23:45:37.797Z,11.96
2023-05-10T23:47:42.996Z,11.97
2023-05-10T23:49:47.997Z,11.98
2023-05-10T23:51:52.911Z,11.98
2023-05-10T23:53:57.768Z,11.97
2023-05-10T23:56:02.744Z,11.98
2023-05-10T23:58:10.143Z,11.99
